Terminal Aerodrome Forecast
Issued by NWS Twin Cities, MN

Home | Current Version | Previous Version | Text Only | Print | Product List | Glossary Off
Versions: 1 2 3 4 5 6 7 8 9 10 11 12 13 14 15 16 17 18 19 20 21 22 23 24 25 26 27

000
FTUS43 KMPX 300800 AAA
TAFMSP
TAF AMD
KMSP 300857Z 3009/0112 07010KT P6SM OVC010
      TEMPO 3009/3012 OVC008
     FM301400 10010KT P6SM BKN012
     FM301600 11011KT P6SM SCT020 BKN250
     FM302000 12012G19KT P6SM SCT025 BKN050
     FM010200 13011KT 6SM -RA BR SCT020 BKN040
      TEMPO 0104/0108 4SM -RA BR SCT015 BKN030
     FM011000 14011KT P6SM SCT030 BKN050=

USA.gov is the U.S. government's official web portal to all federal, state and local government web resources and services.